createdAt,value
2023-01-29T00:00:26.971Z,77.07
2023-01-29T00:10:26.839Z,77.13
2023-01-29T00:20:26.904Z,77.19
2023-01-29T00:30:27.141Z,77.30
2023-01-29T00:40:26.955Z,77.43
2023-01-29T00:50:26.900Z,77.53
2023-01-29T01:00:26.863Z,77.67
2023-01-29T01:10:26.939Z,77.74
2023-01-29T01:20:26.915Z,77.79
2023-01-29T01:30:27.008Z,77.85
2023-01-29T01:40:26.956Z,78.03
2023-01-29T01:50:26.966Z,78.17
2023-01-29T02:00:26.996Z,78.24
2023-01-29T02:10:26.948Z,78.31
2023-01-29T02:20:28.242Z,78.33
2023-01-29T02:30:28.006Z,78.38
2023-01-29T02:40:27.990Z,78.47
2023-01-29T02:50:27.996Z,78.48
2023-01-29T03:00:28.134Z,78.60
2023-01-29T03:10:28.103Z,78.69
2023-01-29T03:20:29.355Z,78.81
2023-01-29T03:30:55.377Z,78.89
2023-01-29T03:40:55.177Z,78.85
2023-01-29T03:50:55.552Z,78.94
2023-01-29T04:00:56.523Z,79.02
2023-01-29T04:10:57.350Z,79.09
2023-01-29T04:20:57.304Z,79.10
2023-01-29T04:30:57.866Z,79.23
2023-01-29T04:40:58.147Z,79.21
2023-01-29T04:50:58.143Z,79.20
2023-01-29T05:00:58.294Z,79.24
2023-01-29T05:10:58.157Z,79.26
2023-01-29T05:20:58.264Z,79.33
2023-01-29T05:30:58.420Z,79.37
2023-01-29T05:40:58.178Z,79.46
2023-01-29T05:50:58.298Z,79.49
2023-01-29T06:00:58.188Z,79.60
2023-01-29T06:10:58.179Z,79.60
2023-01-29T06:20:58.303Z,79.57
2023-01-29T06:31:08.370Z,79.50
2023-01-29T06:41:00.256Z,79.52
2023-01-29T06:51:00.239Z,79.55
2023-01-29T07:01:00.561Z,79.42
2023-01-29T07:11:01.227Z,79.34
2023-01-29T07:21:01.272Z,79.15
2023-01-29T07:31:01.314Z,79.06
2023-01-29T07:41:03.016Z,78.81
2023-01-29T07:51:03.354Z,78.56
2023-01-29T08:01:03.378Z,78.33
2023-01-29T08:11:03.394Z,78.27
2023-01-29T08:21:06.395Z,78.14
2023-01-29T08:31:06.395Z,78.14
2023-01-29T08:41:06.668Z,77.78
2023-01-29T08:51:06.440Z,77.45
2023-01-29T09:01:06.717Z,77.37
2023-01-29T09:11:06.416Z,77.06
2023-01-29T09:21:06.423Z,76.90
2023-01-29T09:31:06.588Z,76.43
2023-01-29T09:41:06.421Z,75.71
2023-01-29T09:51:06.527Z,75.02
2023-01-29T10:01:06.550Z,74.30
2023-01-29T10:11:06.419Z,74.03
2023-01-29T10:21:06.570Z,73.52
2023-01-29T10:31:06.580Z,72.81
2023-01-29T10:41:07.736Z,73.13
2023-01-29T10:51:07.596Z,72.51
2023-01-29T11:01:07.520Z,71.97
2023-01-29T11:11:07.616Z,71.57
2023-01-29T11:21:07.576Z,71.08
2023-01-29T11:31:07.604Z,70.53
2023-01-29T11:41:07.717Z,70.02
2023-01-29T11:51:07.657Z,69.61
2023-01-29T12:01:07.562Z,69.36
2023-01-29T12:11:07.594Z,69.32
2023-01-29T12:21:07.676Z,69.22
2023-01-29T12:31:07.731Z,69.00
2023-01-29T12:41:07.657Z,68.57
2023-01-29T12:51:07.598Z,68.29
2023-01-29T13:01:10.861Z,68.23
2023-01-29T13:11:10.624Z,68.12
2023-01-29T13:21:10.759Z,67.93
2023-01-29T13:31:11.186Z,68.00
2023-01-29T13:41:11.705Z,68.11
2023-01-29T13:51:14.441Z,67.95
2023-01-29T14:01:15.042Z,68.11
2023-01-29T14:11:15.751Z,68.54
2023-01-29T14:21:15.796Z,68.90
2023-01-29T14:31:15.927Z,69.19
2023-01-29T14:41:15.858Z,69.24
2023-01-29T14:51:16.200Z,69.37
2023-01-29T15:01:16.987Z,69.66
2023-01-29T15:11:35.129Z,69.87
2023-01-29T15:21:35.906Z,69.99
2023-01-29T15:31:35.972Z,70.18
2023-01-29T15:41:35.805Z,70.37
2023-01-29T15:51:35.878Z,70.51
2023-01-29T16:01:36.008Z,70.55
2023-01-29T16:11:36.005Z,70.71
2023-01-29T16:21:35.899Z,70.87
2023-01-29T16:31:36.060Z,71.02
2023-01-29T16:41:36.011Z,71.15
2023-01-29T16:51:35.849Z,71.33
2023-01-29T17:01:36.080Z,71.46
2023-01-29T17:11:35.936Z,71.60
2023-01-29T17:21:35.921Z,71.75
2023-01-29T17:31:36.140Z,71.88
2023-01-29T17:41:35.947Z,72.02
2023-01-29T17:51:35.950Z,72.16
2023-01-29T18:01:36.038Z,72.30
2023-01-29T18:11:36.090Z,72.40
2023-01-29T18:21:36.104Z,72.45
2023-01-29T18:31:36.194Z,72.46
2023-01-29T18:41:36.088Z,72.50
2023-01-29T18:51:35.997Z,72.50
2023-01-29T19:01:36.121Z,72.55
2023-01-29T19:11:36.057Z,72.65
2023-01-29T19:21:36.783Z,72.76
2023-01-29T19:31:37.230Z,72.81
2023-01-29T19:41:37.073Z,72.84
2023-01-29T19:51:37.925Z,72.96
2023-01-29T20:01:38.304Z,73.05
2023-01-29T20:11:38.111Z,73.14
2023-01-29T20:21:38.747Z,73.34
2023-01-29T20:31:39.345Z,73.52
2023-01-29T20:41:41.078Z,73.89
2023-01-29T20:51:41.719Z,74.13
2023-01-29T21:01:42.660Z,74.32
2023-01-29T21:11:44.523Z,74.51
2023-01-29T21:21:51.201Z,74.65
2023-01-29T21:31:51.279Z,74.79
2023-01-29T21:42:09.493Z,74.89
2023-01-29T21:52:09.331Z,75.03
2023-01-29T22:02:09.448Z,75.09
2023-01-29T22:12:09.317Z,75.15
2023-01-29T22:22:09.902Z,75.26
2023-01-29T22:32:10.379Z,75.35
2023-01-29T22:42:10.353Z,75.53
2023-01-29T22:52:10.321Z,75.71
2023-01-29T23:02:10.313Z,75.94
2023-01-29T23:12:10.331Z,76.18
2023-01-29T23:22:10.312Z,76.52
2023-01-29T23:32:10.566Z,76.99
2023-01-29T23:42:10.571Z,77.43
2023-01-29T23:52:10.437Z,77.73
